sensor_id;sensor_type;location;lat;lon;timestamp;temperature;humidity
6439;DHT22;3252;52.540;13.290;2022-08-03T00:01:30;20.50;94.70
6439;DHT22;3252;52.540;13.290;2022-08-03T00:03:32;20.50;94.70
6439;DHT22;3252;52.540;13.290;2022-08-03T00:05:35;20.50;94.70
6439;DHT22;3252;52.540;13.290;2022-08-03T00:07:37;20.50;94.90
6439;DHT22;3252;52.540;13.290;2022-08-03T00:09:42;20.40;95.00
6439;DHT22;3252;52.540;13.290;2022-08-03T00:11:44;20.40;95.10
6439;DHT22;3252;52.540;13.290;2022-08-03T00:13:46;20.40;94.90
6439;DHT22;3252;52.540;13.290;2022-08-03T00:15:48;20.40;94.80
6439;DHT22;3252;52.540;13.290;2022-08-03T00:17:50;20.40;94.80
6439;DHT22;3252;52.540;13.290;2022-08-03T00:19:52;20.40;94.70
6439;DHT22;3252;52.540;13.290;2022-08-03T00:21:54;20.30;94.70
6439;DHT22;3252;52.540;13.290;2022-08-03T00:23:56;20.30;94.80
6439;DHT22;3252;52.540;13.290;2022-08-03T00:25:59;20.30;94.70
6439;DHT22;3252;52.540;13.290;2022-08-03T00:28:02;20.30;94.80
6439;DHT22;3252;52.540;13.290;2022-08-03T00:30:06;20.30;95.00
6439;DHT22;3252;52.540;13.290;2022-08-03T00:32:08;20.20;95.00
6439;DHT22;3252;52.540;13.290;2022-08-03T00:34:10;20.20;95.20
6439;DHT22;3252;52.540;13.290;2022-08-03T00:36:12;20.20;95.20
6439;DHT22;3252;52.540;13.290;2022-08-03T00:38:16;20.20;95.50
6439;DHT22;3252;52.540;13.290;2022-08-03T00:40:19;20.20;95.40
6439;DHT22;3252;52.540;13.290;2022-08-03T00:42:22;20.20;95.60
6439;DHT22;3252;52.540;13.290;2022-08-03T00:44:24;20.10;95.70
6439;DHT22;3252;52.540;13.290;2022-08-03T00:46:26;20.20;95.80
6439;DHT22;3252;52.540;13.290;2022-08-03T00:48:28;20.20;95.80
6439;DHT22;3252;52.540;13.290;2022-08-03T00:50:32;20.20;95.90
6439;DHT22;3252;52.540;13.290;2022-08-03T00:52:35;20.10;95.80
6439;DHT22;3252;52.540;13.290;2022-08-03T00:54:38;20.10;95.80
6439;DHT22;3252;52.540;13.290;2022-08-03T00:56:40;20.10;95.80
6439;DHT22;3252;52.540;13.290;2022-08-03T00:58:45;20.20;96.00
6439;DHT22;3252;52.540;13.290;2022-08-03T01:00:47;20.20;95.90
6439;DHT22;3252;52.540;13.290;2022-08-03T01:02:50;20.20;95.90
6439;DHT22;3252;52.540;13.290;2022-08-03T01:04:52;20.20;96.00
6439;DHT22;3252;52.540;13.290;2022-08-03T01:07:02;20.20;95.90
6439;DHT22;3252;52.540;13.290;2022-08-03T01:09:11;20.10;95.90
6439;DHT22;3252;52.540;13.290;2022-08-03T01:11:20;20.10;95.90
6439;DHT22;3252;52.540;13.290;2022-08-03T01:13:29;20.10;96.00
6439;DHT22;3252;52.540;13.290;2022-08-03T01:15:39;20.10;96.10
6439;DHT22;3252;52.540;13.290;2022-08-03T01:17:50;20.10;96.20
6439;DHT22;3252;52.540;13.290;2022-08-03T01:19:55;20.10;96.10
6439;DHT22;3252;52.540;13.290;2022-08-03T01:22:14;20.10;96.20
6439;DHT22;3252;52.540;13.290;2022-08-03T01:24:31;20.10;96.30
6439;DHT22;3252;52.540;13.290;2022-08-03T01:26:52;20.10;96.30
6439;DHT22;3252;52.540;13.290;2022-08-03T01:29:03;20.10;96.20
6439;DHT22;3252;52.540;13.290;2022-08-03T01:31:09;20.20;96.40
6439;DHT22;3252;52.540;13.290;2022-08-03T01:33:16;20.10;96.30
6439;DHT22;3252;52.540;13.290;2022-08-03T01:35:27;20.10;96.40
6439;DHT22;3252;52.540;13.290;2022-08-03T01:37:36;20.10;96.50
6439;DHT22;3252;52.540;13.290;2022-08-03T01:39:40;20.10;96.50
6439;DHT22;3252;52.540;13.290;2022-08-03T01:41:46;20.10;96.50
6439;DHT22;3252;52.540;13.290;2022-08-03T01:43:49;20.10;96.60
6439;DHT22;3252;52.540;13.290;2022-08-03T01:45:54;20.10;96.70
6439;DHT22;3252;52.540;13.290;2022-08-03T01:47:58;20.10;96.70
6439;DHT22;3252;52.540;13.290;2022-08-03T01:50:02;20.10;96.60
6439;DHT22;3252;52.540;13.290;2022-08-03T01:52:06;20.10;96.70
6439;DHT22;3252;52.540;13.290;2022-08-03T01:54:09;20.10;96.60
6439;DHT22;3252;52.540;13.290;2022-08-03T01:56:13;20.10;96.50
6439;DHT22;3252;52.540;13.290;2022-08-03T01:58:19;20.10;96.60
6439;DHT22;3252;52.540;13.290;2022-08-03T02:00:23;20.10;96.80
6439;DHT22;3252;52.540;13.290;2022-08-03T02:02:25;20.10;96.80
6439;DHT22;3252;52.540;13.290;2022-08-03T02:04:29;20.10;96.90
6439;DHT22;3252;52.540;13.290;2022-08-03T02:06:33;20.10;96.80
6439;DHT22;3252;52.540;13.290;2022-08-03T02:08:36;20.10;96.80
6439;DHT22;3252;52.540;13.290;2022-08-03T02:10:40;20.10;96.80
6439;DHT22;3252;52.540;13.290;2022-08-03T02:12:44;20.10;96.90
6439;DHT22;3252;52.540;13.290;2022-08-03T02:14:48;20.20;96.90
6439;DHT22;3252;52.540;13.290;2022-08-03T02:16:51;20.20;97.00
6439;DHT22;3252;52.540;13.290;2022-08-03T02:18:54;20.20;96.90
6439;DHT22;3252;52.540;13.290;2022-08-03T02:21:00;20.20;96.90
6439;DHT22;3252;52.540;13.290;2022-08-03T02:23:03;20.20;96.80
6439;DHT22;3252;52.540;13.290;2022-08-03T02:25:08;20.20;96.80
6439;DHT22;3252;52.540;13.290;2022-08-03T02:27:17;20.30;96.90
6439;DHT22;3252;52.540;13.290;2022-08-03T02:29:23;20.30;96.90
6439;DHT22;3252;52.540;13.290;2022-08-03T02:31:28;20.30;96.80
6439;DHT22;3252;52.540;13.290;2022-08-03T02:33:35;20.30;96.80
6439;DHT22;3252;52.540;13.290;2022-08-03T02:35:38;20.30;97.10
6439;DHT22;3252;52.540;13.290;2022-08-03T02:37:45;20.30;96.70
6439;DHT22;3252;52.540;13.290;2022-08-03T02:39:49;20.30;96.50
6439;DHT22;3252;52.540;13.290;2022-08-03T02:41:55;20.30;96.50
6439;DHT22;3252;52.540;13.290;2022-08-03T02:44:06;20.30;96.50
6439;DHT22;3252;52.540;13.290;2022-08-03T02:46:12;20.30;96.20
6439;DHT22;3252;52.540;13.290;2022-08-03T02:48:17;20.30;96.50
6439;DHT22;3252;52.540;13.290;2022-08-03T02:50:21;20.30;96.40
6439;DHT22;3252;52.540;13.290;2022-08-03T02:52:27;20.20;96.30
6439;DHT22;3252;52.540;13.290;2022-08-03T02:54:31;20.20;96.20
6439;DHT22;3252;52.540;13.290;2022-08-03T02:56:36;20.20;96.10
6439;DHT22;3252;52.540;13.290;2022-08-03T02:58:39;20.30;95.90
6439;DHT22;3252;52.540;13.290;2022-08-03T03:00:43;20.30;95.80
6439;DHT22;3252;52.540;13.290;2022-08-03T03:02:46;20.30;96.00
6439;DHT22;3252;52.540;13.290;2022-08-03T03:04:50;20.30;95.90
6439;DHT22;3252;52.540;13.290;2022-08-03T03:06:52;20.30;95.40
6439;DHT22;3252;52.540;13.290;2022-08-03T03:08:55;20.30;95.10
6439;DHT22;3252;52.540;13.290;2022-08-03T03:11:00;20.30;94.90
6439;DHT22;3252;52.540;13.290;2022-08-03T03:13:02;20.30;94.70
6439;DHT22;3252;52.540;13.290;2022-08-03T03:15:07;20.40;94.40
6439;DHT22;3252;52.540;13.290;2022-08-03T03:17:10;20.40;94.20
6439;DHT22;3252;52.540;13.290;2022-08-03T03:19:13;20.40;94.30
6439;DHT22;3252;52.540;13.290;2022-08-03T03:21:17;20.40;93.80
6439;DHT22;3252;52.540;13.290;2022-08-03T03:23:21;20.40;93.80
6439;DHT22;3252;52.540;13.290;2022-08-03T03:25:24;20.40;94.00
6439;DHT22;3252;52.540;13.290;2022-08-03T03:27:27;20.40;94.30
6439;DHT22;3252;52.540;13.290;2022-08-03T03:29:31;20.50;94.50
6439;DHT22;3252;52.540;13.290;2022-08-03T03:31:34;20.50;94.10
6439;DHT22;3252;52.540;13.290;2022-08-03T03:33:37;20.50;93.40
6439;DHT22;3252;52.540;13.290;2022-08-03T03:35:40;20.50;93.30
6439;DHT22;3252;52.540;13.290;2022-08-03T03:37:44;20.50;93.30
6439;DHT22;3252;52.540;13.290;2022-08-03T03:39:46;20.50;93.00
6439;DHT22;3252;52.540;13.290;2022-08-03T03:41:48;20.50;92.80
6439;DHT22;3252;52.540;13.290;2022-08-03T03:43:52;20.50;92.90
6439;DHT22;3252;52.540;13.290;2022-08-03T03:45:54;20.60;93.00
6439;DHT22;3252;52.540;13.290;2022-08-03T03:47:58;20.50;93.00
6439;DHT22;3252;52.540;13.290;2022-08-03T03:50:01;20.50;92.70
6439;DHT22;3252;52.540;13.290;2022-08-03T03:52:03;20.50;92.40
6439;DHT22;3252;52.540;13.290;2022-08-03T03:54:06;20.50;92.40
6439;DHT22;3252;52.540;13.290;2022-08-03T03:56:08;20.50;92.30
6439;DHT22;3252;52.540;13.290;2022-08-03T03:58:10;20.50;92.30
6439;DHT22;3252;52.540;13.290;2022-08-03T04:00:15;20.60;92.30
6439;DHT22;3252;52.540;13.290;2022-08-03T04:02:17;20.60;92.10
6439;DHT22;3252;52.540;13.290;2022-08-03T04:04:19;20.60;92.00
6439;DHT22;3252;52.540;13.290;2022-08-03T04:06:39;20.50;91.60
6439;DHT22;3252;52.540;13.290;2022-08-03T04:09:13;20.60;91.70
6439;DHT22;3252;52.540;13.290;2022-08-03T04:11:51;20.60;91.80
6439;DHT22;3252;52.540;13.290;2022-08-03T04:13:57;20.60;92.00
6439;DHT22;3252;52.540;13.290;2022-08-03T04:16:04;20.60;92.20
6439;DHT22;3252;52.540;13.290;2022-08-03T04:18:10;20.60;92.30
6439;DHT22;3252;52.540;13.290;2022-08-03T04:20:13;20.70;92.30
6439;DHT22;3252;52.540;13.290;2022-08-03T04:22:20;20.70;92.30
6439;DHT22;3252;52.540;13.290;2022-08-03T04:24:24;20.70;92.50
6439;DHT22;3252;52.540;13.290;2022-08-03T04:26:31;20.70;92.70
6439;DHT22;3252;52.540;13.290;2022-08-03T04:28:36;20.70;92.70
6439;DHT22;3252;52.540;13.290;2022-08-03T04:30:40;20.70;92.60
6439;DHT22;3252;52.540;13.290;2022-08-03T04:32:50;20.70;92.60
6439;DHT22;3252;52.540;13.290;2022-08-03T04:34:52;20.70;92.60
6439;DHT22;3252;52.540;13.290;2022-08-03T04:36:57;20.70;92.70
6439;DHT22;3252;52.540;13.290;2022-08-03T04:39:03;20.70;92.70
6439;DHT22;3252;52.540;13.290;2022-08-03T04:41:06;20.70;92.80
6439;DHT22;3252;52.540;13.290;2022-08-03T04:43:09;20.70;92.90
6439;DHT22;3252;52.540;13.290;2022-08-03T04:45:14;20.70;92.90
6439;DHT22;3252;52.540;13.290;2022-08-03T04:47:16;20.70;92.70
6439;DHT22;3252;52.540;13.290;2022-08-03T04:49:20;20.80;92.80
6439;DHT22;3252;52.540;13.290;2022-08-03T04:51:24;20.70;92.50
6439;DHT22;3252;52.540;13.290;2022-08-03T04:53:26;20.80;92.50
6439;DHT22;3252;52.540;13.290;2022-08-03T04:55:29;20.80;92.20
6439;DHT22;3252;52.540;13.290;2022-08-03T04:57:31;20.80;92.30
6439;DHT22;3252;52.540;13.290;2022-08-03T04:59:33;20.80;92.10
6439;DHT22;3252;52.540;13.290;2022-08-03T05:01:36;20.90;90.20
6439;DHT22;3252;52.540;13.290;2022-08-03T05:03:38;20.90;90.70
6439;DHT22;3252;52.540;13.290;2022-08-03T05:05:41;20.90;90.10
6439;DHT22;3252;52.540;13.290;2022-08-03T05:07:43;21.00;89.40
6439;DHT22;3252;52.540;13.290;2022-08-03T05:09:45;21.00;90.40
6439;DHT22;3252;52.540;13.290;2022-08-03T05:11:47;21.00;90.80
6439;DHT22;3252;52.540;13.290;2022-08-03T05:13:49;21.10;89.40
6439;DHT22;3252;52.540;13.290;2022-08-03T05:15:51;21.10;87.80
6439;DHT22;3252;52.540;13.290;2022-08-03T05:17:53;21.10;86.60
6439;DHT22;3252;52.540;13.290;2022-08-03T05:19:56;21.20;87.70
6439;DHT22;3252;52.540;13.290;2022-08-03T05:21:59;21.20;87.50
6439;DHT22;3252;52.540;13.290;2022-08-03T05:24:02;21.20;86.20
6439;DHT22;3252;52.540;13.290;2022-08-03T05:26:04;21.30;85.30
6439;DHT22;3252;52.540;13.290;2022-08-03T05:28:06;21.30;84.70
6439;DHT22;3252;52.540;13.290;2022-08-03T05:30:08;21.30;83.10
6439;DHT22;3252;52.540;13.290;2022-08-03T05:32:11;21.40;84.00
6439;DHT22;3252;52.540;13.290;2022-08-03T05:34:16;21.50;83.80
6439;DHT22;3252;52.540;13.290;2022-08-03T05:36:18;21.50;84.00
6439;DHT22;3252;52.540;13.290;2022-08-03T05:38:21;21.60;84.50
6439;DHT22;3252;52.540;13.290;2022-08-03T05:40:23;21.60;83.40
6439;DHT22;3252;52.540;13.290;2022-08-03T05:42:25;21.70;82.60
6439;DHT22;3252;52.540;13.290;2022-08-03T05:44:27;21.70;84.10
6439;DHT22;3252;52.540;13.290;2022-08-03T05:46:31;21.80;83.00
6439;DHT22;3252;52.540;13.290;2022-08-03T05:48:33;21.90;81.80
6439;DHT22;3252;52.540;13.290;2022-08-03T05:50:35;21.90;83.20
6439;DHT22;3252;52.540;13.290;2022-08-03T05:52:37;22.00;83.80
6439;DHT22;3252;52.540;13.290;2022-08-03T05:54:41;22.10;82.60
6439;DHT22;3252;52.540;13.290;2022-08-03T05:56:43;22.10;80.20
6439;DHT22;3252;52.540;13.290;2022-08-03T05:58:45;22.20;80.70
6439;DHT22;3252;52.540;13.290;2022-08-03T06:00:47;22.30;77.40
6439;DHT22;3252;52.540;13.290;2022-08-03T06:02:49;22.30;77.00
6439;DHT22;3252;52.540;13.290;2022-08-03T06:04:51;22.40;76.20
6439;DHT22;3252;52.540;13.290;2022-08-03T06:06:53;22.50;76.40
6439;DHT22;3252;52.540;13.290;2022-08-03T06:08:55;22.60;75.00
6439;DHT22;3252;52.540;13.290;2022-08-03T06:10:59;22.60;74.80
6439;DHT22;3252;52.540;13.290;2022-08-03T06:13:01;22.60;74.70
6439;DHT22;3252;52.540;13.290;2022-08-03T06:15:03;22.80;74.40
6439;DHT22;3252;52.540;13.290;2022-08-03T06:17:06;22.80;74.20
6439;DHT22;3252;52.540;13.290;2022-08-03T06:19:07;22.90;73.10
6439;DHT22;3252;52.540;13.290;2022-08-03T06:21:09;23.00;72.20
6439;DHT22;3252;52.540;13.290;2022-08-03T06:23:11;23.10;71.20
6439;DHT22;3252;52.540;13.290;2022-08-03T06:25:13;23.20;71.00
6439;DHT22;3252;52.540;13.290;2022-08-03T06:27:17;23.20;71.60
6439;DHT22;3252;52.540;13.290;2022-08-03T06:29:20;23.30;70.90
6439;DHT22;3252;52.540;13.290;2022-08-03T06:31:23;23.40;69.70
6439;DHT22;3252;52.540;13.290;2022-08-03T06:33:25;23.50;68.60
6439;DHT22;3252;52.540;13.290;2022-08-03T06:35:27;23.60;66.80
6439;DHT22;3252;52.540;13.290;2022-08-03T06:37:29;23.70;66.50
6439;DHT22;3252;52.540;13.290;2022-08-03T06:39:31;23.70;65.80
6439;DHT22;3252;52.540;13.290;2022-08-03T06:41:33;23.80;64.90
6439;DHT22;3252;52.540;13.290;2022-08-03T06:43:38;23.90;64.50
6439;DHT22;3252;52.540;13.290;2022-08-03T06:45:40;23.90;64.40
6439;DHT22;3252;52.540;13.290;2022-08-03T06:47:43;24.00;64.30
6439;DHT22;3252;52.540;13.290;2022-08-03T06:49:44;24.10;64.30
6439;DHT22;3252;52.540;13.290;2022-08-03T06:51:47;24.20;64.90
6439;DHT22;3252;52.540;13.290;2022-08-03T06:53:50;24.20;64.00
6439;DHT22;3252;52.540;13.290;2022-08-03T06:55:52;24.20;63.20
6439;DHT22;3252;52.540;13.290;2022-08-03T06:57:54;24.30;63.20
6439;DHT22;3252;52.540;13.290;2022-08-03T06:59:58;24.40;62.40
6439;DHT22;3252;52.540;13.290;2022-08-03T07:02:01;24.50;61.80
6439;DHT22;3252;52.540;13.290;2022-08-03T07:04:03;24.60;61.50
6439;DHT22;3252;52.540;13.290;2022-08-03T07:06:06;24.60;61.00
6439;DHT22;3252;52.540;13.290;2022-08-03T07:08:08;24.70;61.40
6439;DHT22;3252;52.540;13.290;2022-08-03T07:10:10;24.80;61.60
6439;DHT22;3252;52.540;13.290;2022-08-03T07:12:12;24.80;61.30
6439;DHT22;3252;52.540;13.290;2022-08-03T07:14:14;24.90;61.40
6439;DHT22;3252;52.540;13.290;2022-08-03T07:16:17;25.00;61.20
6439;DHT22;3252;52.540;13.290;2022-08-03T07:18:19;25.00;60.80
6439;DHT22;3252;52.540;13.290;2022-08-03T07:20:21;25.10;60.50
6439;DHT22;3252;52.540;13.290;2022-08-03T07:22:24;25.10;59.70
6439;DHT22;3252;52.540;13.290;2022-08-03T07:24:26;25.20;58.90
6439;DHT22;3252;52.540;13.290;2022-08-03T07:26:28;25.20;58.80
6439;DHT22;3252;52.540;13.290;2022-08-03T07:28:31;25.30;58.80
6439;DHT22;3252;52.540;13.290;2022-08-03T07:30:33;25.40;58.60
6439;DHT22;3252;52.540;13.290;2022-08-03T07:32:37;25.50;58.10
6439;DHT22;3252;52.540;13.290;2022-08-03T07:34:39;25.50;57.60
6439;DHT22;3252;52.540;13.290;2022-08-03T07:36:41;25.60;57.10
6439;DHT22;3252;52.540;13.290;2022-08-03T07:38:43;25.60;57.00
6439;DHT22;3252;52.540;13.290;2022-08-03T07:40:45;25.70;57.40
6439;DHT22;3252;52.540;13.290;2022-08-03T07:42:47;25.80;57.00
6439;DHT22;3252;52.540;13.290;2022-08-03T07:44:49;25.80;56.80
6439;DHT22;3252;52.540;13.290;2022-08-03T07:46:51;25.90;56.70
6439;DHT22;3252;52.540;13.290;2022-08-03T07:48:54;25.90;56.50
6439;DHT22;3252;52.540;13.290;2022-08-03T07:50:56;26.00;56.10
6439;DHT22;3252;52.540;13.290;2022-08-03T07:52:58;26.10;56.10
6439;DHT22;3252;52.540;13.290;2022-08-03T07:54:59;26.10;55.40
6439;DHT22;3252;52.540;13.290;2022-08-03T07:57:01;26.20;55.70
6439;DHT22;3252;52.540;13.290;2022-08-03T07:59:03;26.30;55.00
6439;DHT22;3252;52.540;13.290;2022-08-03T08:01:05;26.40;54.90
6439;DHT22;3252;52.540;13.290;2022-08-03T08:03:07;26.50;54.50
6439;DHT22;3252;52.540;13.290;2022-08-03T08:05:11;26.50;54.10
6439;DHT22;3252;52.540;13.290;2022-08-03T08:07:13;26.60;54.10
6439;DHT22;3252;52.540;13.290;2022-08-03T08:09:15;26.70;53.60
6439;DHT22;3252;52.540;13.290;2022-08-03T08:11:17;26.70;53.00
6439;DHT22;3252;52.540;13.290;2022-08-03T08:13:18;26.70;53.10
6439;DHT22;3252;52.540;13.290;2022-08-03T08:15:20;26.70;53.10
6439;DHT22;3252;52.540;13.290;2022-08-03T08:17:22;26.80;52.70
6439;DHT22;3252;52.540;13.290;2022-08-03T08:19:25;26.90;52.60
6439;DHT22;3252;52.540;13.290;2022-08-03T08:21:28;26.90;52.60
6439;DHT22;3252;52.540;13.290;2022-08-03T08:23:30;27.00;52.40
6439;DHT22;3252;52.540;13.290;2022-08-03T08:25:35;27.00;51.60
6439;DHT22;3252;52.540;13.290;2022-08-03T08:27:41;27.10;51.20
6439;DHT22;3252;52.540;13.290;2022-08-03T08:29:44;27.10;50.50
6439;DHT22;3252;52.540;13.290;2022-08-03T08:31:45;27.20;50.50
6439;DHT22;3252;52.540;13.290;2022-08-03T08:33:47;27.20;50.60
6439;DHT22;3252;52.540;13.290;2022-08-03T08:35:51;27.20;50.30
6439;DHT22;3252;52.540;13.290;2022-08-03T08:37:56;27.30;50.80
6439;DHT22;3252;52.540;13.290;2022-08-03T08:40:00;27.30;50.40
6439;DHT22;3252;52.540;13.290;2022-08-03T08:42:02;27.40;49.40
6439;DHT22;3252;52.540;13.290;2022-08-03T08:44:04;27.40;49.20
6439;DHT22;3252;52.540;13.290;2022-08-03T08:46:11;27.50;48.80
6439;DHT22;3252;52.540;13.290;2022-08-03T08:48:14;27.60;48.60
6439;DHT22;3252;52.540;13.290;2022-08-03T08:50:20;27.60;48.70
6439;DHT22;3252;52.540;13.290;2022-08-03T08:52:24;27.70;48.60
6439;DHT22;3252;52.540;13.290;2022-08-03T08:54:28;27.80;48.50
6439;DHT22;3252;52.540;13.290;2022-08-03T08:56:32;27.90;48.30
6439;DHT22;3252;52.540;13.290;2022-08-03T08:58:37;27.90;47.90
6439;DHT22;3252;52.540;13.290;2022-08-03T09:00:39;28.00;47.70
6439;DHT22;3252;52.540;13.290;2022-08-03T09:02:42;28.10;47.60
6439;DHT22;3252;52.540;13.290;2022-08-03T09:04:44;28.10;48.10
6439;DHT22;3252;52.540;13.290;2022-08-03T09:06:48;28.20;47.40
6439;DHT22;3252;52.540;13.290;2022-08-03T09:08:51;28.30;47.00
6439;DHT22;3252;52.540;13.290;2022-08-03T09:10:55;28.30;47.40
6439;DHT22;3252;52.540;13.290;2022-08-03T09:12:57;28.40;47.20
6439;DHT22;3252;52.540;13.290;2022-08-03T09:15:15;28.50;47.10
6439;DHT22;3252;52.540;13.290;2022-08-03T09:17:17;28.80;46.80
6439;DHT22;3252;52.540;13.290;2022-08-03T09:19:19;29.00;46.50
6439;DHT22;3252;52.540;13.290;2022-08-03T09:21:24;29.00;46.70
6439;DHT22;3252;52.540;13.290;2022-08-03T09:23:43;29.00;46.20
6439;DHT22;3252;52.540;13.290;2022-08-03T09:25:45;29.00;46.60
6439;DHT22;3252;52.540;13.290;2022-08-03T09:27:48;29.10;46.20
6439;DHT22;3252;52.540;13.290;2022-08-03T09:29:52;29.20;45.80
6439;DHT22;3252;52.540;13.290;2022-08-03T09:32:00;29.20;45.70
6439;DHT22;3252;52.540;13.290;2022-08-03T09:34:04;29.20;45.20
6439;DHT22;3252;52.540;13.290;2022-08-03T09:36:07;29.30;45.40
6439;DHT22;3252;52.540;13.290;2022-08-03T09:38:13;29.40;45.40
6439;DHT22;3252;52.540;13.290;2022-08-03T09:40:33;29.80;44.90
6439;DHT22;3252;52.540;13.290;2022-08-03T09:42:35;29.90;45.20
6439;DHT22;3252;52.540;13.290;2022-08-03T09:44:40;29.90;44.40
6439;DHT22;3252;52.540;13.290;2022-08-03T09:46:49;29.90;44.50
6439;DHT22;3252;52.540;13.290;2022-08-03T09:48:52;30.00;44.40
6439;DHT22;3252;52.540;13.290;2022-08-03T09:50:54;30.10;44.80
6439;DHT22;3252;52.540;13.290;2022-08-03T09:53:01;29.90;44.10
6439;DHT22;3252;52.540;13.290;2022-08-03T09:55:08;29.90;44.80
6439;DHT22;3252;52.540;13.290;2022-08-03T09:57:20;29.90;45.10
6439;DHT22;3252;52.540;13.290;2022-08-03T09:59:24;29.90;44.70
6439;DHT22;3252;52.540;13.290;2022-08-03T10:01:34;29.80;44.30
6439;DHT22;3252;52.540;13.290;2022-08-03T10:03:38;29.80;44.20
6439;DHT22;3252;52.540;13.290;2022-08-03T10:05:40;29.80;44.40
6439;DHT22;3252;52.540;13.290;2022-08-03T10:07:45;29.80;45.10
6439;DHT22;3252;52.540;13.290;2022-08-03T10:09:55;29.70;44.50
6439;DHT22;3252;52.540;13.290;2022-08-03T10:12:06;29.70;45.00
6439;DHT22;3252;52.540;13.290;2022-08-03T10:14:09;29.70;44.50
6439;DHT22;3252;52.540;13.290;2022-08-03T10:16:18;29.80;44.40
6439;DHT22;3252;52.540;13.290;2022-08-03T10:18:21;29.70;44.40
6439;DHT22;3252;52.540;13.290;2022-08-03T10:20:24;29.80;44.50
6439;DHT22;3252;52.540;13.290;2022-08-03T10:22:28;29.80;44.50
6439;DHT22;3252;52.540;13.290;2022-08-03T10:24:33;29.80;44.60
6439;DHT22;3252;52.540;13.290;2022-08-03T10:26:38;29.90;44.40
6439;DHT22;3252;52.540;13.290;2022-08-03T10:28:47;30.00;44.10
6439;DHT22;3252;52.540;13.290;2022-08-03T10:30:51;30.10;44.00
6439;DHT22;3252;52.540;13.290;2022-08-03T10:32:55;30.10;44.00
6439;DHT22;3252;52.540;13.290;2022-08-03T10:35:04;30.10;44.10
6439;DHT22;3252;52.540;13.290;2022-08-03T10:37:10;30.10;43.70
6439;DHT22;3252;52.540;13.290;2022-08-03T10:39:13;30.10;43.70
6439;DHT22;3252;52.540;13.290;2022-08-03T10:41:15;30.10;44.20
6439;DHT22;3252;52.540;13.290;2022-08-03T10:43:23;30.10;43.70
6439;DHT22;3252;52.540;13.290;2022-08-03T10:45:27;30.10;43.70
6439;DHT22;3252;52.540;13.290;2022-08-03T10:47:30;30.10;44.00
6439;DHT22;3252;52.540;13.290;2022-08-03T10:49:32;30.10;43.90
6439;DHT22;3252;52.540;13.290;2022-08-03T10:51:36;30.20;43.80
6439;DHT22;3252;52.540;13.290;2022-08-03T10:53:40;30.20;43.80
6439;DHT22;3252;52.540;13.290;2022-08-03T10:55:45;30.30;44.10
6439;DHT22;3252;52.540;13.290;2022-08-03T10:58:04;30.40;43.50
6439;DHT22;3252;52.540;13.290;2022-08-03T11:00:07;30.60;43.70
6439;DHT22;3252;52.540;13.290;2022-08-03T11:02:10;30.60;43.10
6439;DHT22;3252;52.540;13.290;2022-08-03T11:04:15;30.60;43.50
6439;DHT22;3252;52.540;13.290;2022-08-03T11:06:19;30.60;43.70
6439;DHT22;3252;52.540;13.290;2022-08-03T11:08:28;30.70;43.90
6439;DHT22;3252;52.540;13.290;2022-08-03T11:10:31;30.60;43.60
6439;DHT22;3252;52.540;13.290;2022-08-03T11:12:33;30.70;43.70
6439;DHT22;3252;52.540;13.290;2022-08-03T11:14:45;30.70;43.90
6439;DHT22;3252;52.540;13.290;2022-08-03T11:16:50;30.70;43.70
6439;DHT22;3252;52.540;13.290;2022-08-03T11:18:56;30.80;43.40
6439;DHT22;3252;52.540;13.290;2022-08-03T11:20:59;30.80;43.40
6439;DHT22;3252;52.540;13.290;2022-08-03T11:23:01;30.80;43.10
6439;DHT22;3252;52.540;13.290;2022-08-03T11:25:05;30.80;43.40
6439;DHT22;3252;52.540;13.290;2022-08-03T11:27:17;30.80;43.70
6439;DHT22;3252;52.540;13.290;2022-08-03T11:29:26;30.90;43.40
6439;DHT22;3252;52.540;13.290;2022-08-03T11:31:55;30.90;43.40
6439;DHT22;3252;52.540;13.290;2022-08-03T11:34:04;31.10;42.80
6439;DHT22;3252;52.540;13.290;2022-08-03T11:36:06;31.10;43.10
6439;DHT22;3252;52.540;13.290;2022-08-03T11:38:10;31.10;43.10
6439;DHT22;3252;52.540;13.290;2022-08-03T11:40:32;31.10;43.40
6439;DHT22;3252;52.540;13.290;2022-08-03T11:42:41;31.10;42.80
6439;DHT22;3252;52.540;13.290;2022-08-03T11:44:48;31.10;42.50
6439;DHT22;3252;52.540;13.290;2022-08-03T11:46:50;31.10;42.50
6439;DHT22;3252;52.540;13.290;2022-08-03T11:48:53;31.00;42.80
6439;DHT22;3252;52.540;13.290;2022-08-03T11:50:59;31.00;42.80
6439;DHT22;3252;52.540;13.290;2022-08-03T11:53:01;31.10;42.80
6439;DHT22;3252;52.540;13.290;2022-08-03T11:55:11;31.10;43.30
6439;DHT22;3252;52.540;13.290;2022-08-03T11:57:27;31.10;43.00
6439;DHT22;3252;52.540;13.290;2022-08-03T11:59:31;31.10;42.70
6439;DHT22;3252;52.540;13.290;2022-08-03T12:01:33;31.20;43.10
6439;DHT22;3252;52.540;13.290;2022-08-03T12:03:35;31.20;42.90
6439;DHT22;3252;52.540;13.290;2022-08-03T12:05:44;31.20;42.80
6439;DHT22;3252;52.540;13.290;2022-08-03T12:07:46;31.20;42.70
6439;DHT22;3252;52.540;13.290;2022-08-03T12:10:06;31.20;42.60
6439;DHT22;3252;52.540;13.290;2022-08-03T12:12:08;31.20;42.60
6439;DHT22;3252;52.540;13.290;2022-08-03T12:14:16;31.20;42.40
6439;DHT22;3252;52.540;13.290;2022-08-03T12:16:20;31.20;42.70
6439;DHT22;3252;52.540;13.290;2022-08-03T12:18:23;31.30;42.80
6439;DHT22;3252;52.540;13.290;2022-08-03T12:20:27;31.30;42.70
6439;DHT22;3252;52.540;13.290;2022-08-03T12:22:31;31.30;42.30
6439;DHT22;3252;52.540;13.290;2022-08-03T12:24:39;31.40;42.40
6439;DHT22;3252;52.540;13.290;2022-08-03T12:26:43;31.50;42.40
6439;DHT22;3252;52.540;13.290;2022-08-03T12:28:47;31.50;42.20
6439;DHT22;3252;52.540;13.290;2022-08-03T12:30:52;31.50;42.40
6439;DHT22;3252;52.540;13.290;2022-08-03T12:32:54;31.60;42.20
6439;DHT22;3252;52.540;13.290;2022-08-03T12:34:56;31.60;42.30
6439;DHT22;3252;52.540;13.290;2022-08-03T12:37:04;31.60;42.30
6439;DHT22;3252;52.540;13.290;2022-08-03T12:39:08;31.50;42.90
6439;DHT22;3252;52.540;13.290;2022-08-03T12:41:11;31.50;42.30
6439;DHT22;3252;52.540;13.290;2022-08-03T12:43:15;31.50;42.50
6439;DHT22;3252;52.540;13.290;2022-08-03T12:45:18;31.50;42.90
6439;DHT22;3252;52.540;13.290;2022-08-03T12:47:22;31.60;42.60
6439;DHT22;3252;52.540;13.290;2022-08-03T12:49:24;31.60;42.70
6439;DHT22;3252;52.540;13.290;2022-08-03T12:51:27;31.60;42.60
6439;DHT22;3252;52.540;13.290;2022-08-03T12:53:29;31.60;42.20
6439;DHT22;3252;52.540;13.290;2022-08-03T12:55:31;31.60;42.50
6439;DHT22;3252;52.540;13.290;2022-08-03T12:57:40;31.70;42.60
6439;DHT22;3252;52.540;13.290;2022-08-03T12:59:44;31.80;42.60
6439;DHT22;3252;52.540;13.290;2022-08-03T13:01:47;31.80;42.40
6439;DHT22;3252;52.540;13.290;2022-08-03T13:03:51;31.80;42.80
6439;DHT22;3252;52.540;13.290;2022-08-03T13:05:54;31.80;42.60
6439;DHT22;3252;52.540;13.290;2022-08-03T13:07:57;31.90;42.60
6439;DHT22;3252;52.540;13.290;2022-08-03T13:09:59;31.80;42.50
6439;DHT22;3252;52.540;13.290;2022-08-03T13:12:05;31.90;42.40
6439;DHT22;3252;52.540;13.290;2022-08-03T13:14:08;32.00;42.30
6439;DHT22;3252;52.540;13.290;2022-08-03T13:16:10;32.10;42.50
6439;DHT22;3252;52.540;13.290;2022-08-03T13:18:12;32.20;42.30